Time;durP1;ratioP1;P1;durP2;ratioP2;P2;SDS_P1;SDS_P2;PMS_P1;PMS_P2;Temp;Humidity;BMP_temperature;BMP_pressure;BME280_temperature;BME280_humidity;BME280_pressure;Samples;Min_cycle;Max_cycle;Signal;HPM_P1;HPM_P2
2023/04/26 00:00:42;;;;;;;4.20;2.20;;;;;;;5.03;59.48;98938.41;5078737;28;41402;-81
2023/04/26 00:03:11;;;;;;;2.30;2.10;;;;;;;5.10;59.54;98953.91;5113377;28;43162;-78
2023/04/26 00:05:39;;;;;;;3.07;2.13;;;;;;;5.06;59.85;98950.56;5095863;28;39903;-82
2023/04/26 00:08:09;;;;;;;3.70;2.97;;;;;;;5.05;59.64;98956.72;5095216;28;41691;-79
2023/04/26 00:10:36;;;;;;;3.60;2.80;;;;;;;5.01;59.53;98953.34;5095583;28;43606;-79
2023/04/26 00:13:04;;;;;;;2.37;1.80;;;;;;;5.00;59.79;98958.66;5095100;28;41246;-81
2023/04/26 00:15:32;;;;;;;2.97;2.20;;;;;;;4.98;60.88;98944.72;5078496;28;39977;-81
2023/04/26 00:17:59;;;;;;;3.40;2.10;;;;;;;4.95;60.87;98948.31;5078072;28;40930;-79
2023/04/26 00:20:27;;;;;;;3.30;3.00;;;;;;;4.93;61.30;98942.31;5078479;28;41752;-80
2023/04/26 00:22:54;;;;;;;2.80;1.90;;;;;;;4.91;61.05;98948.50;5078203;28;42331;-78
2023/04/26 00:25:23;;;;;;;3.33;1.80;;;;;;;4.87;61.33;98952.16;5095589;28;40212;-80
2023/04/26 00:27:52;;;;;;;3.07;2.13;;;;;;;4.79;61.83;98941.13;5095249;28;42401;-79
2023/04/26 00:30:20;;;;;;;3.67;2.20;;;;;;;4.78;61.60;98942.03;5095204;28;42657;-78
2023/04/26 00:32:47;;;;;;;2.93;2.00;;;;;;;4.60;61.10;98927.81;5095168;28;41325;-77
2023/04/26 00:35:15;;;;;;;2.63;2.30;;;;;;;4.72;61.35;98947.47;5078269;28;41104;-81
2023/04/26 00:37:43;;;;;;;3.57;2.17;;;;;;;4.73;60.97;98954.44;5077925;28;41718;-80
2023/04/26 00:40:12;;;;;;;3.10;1.90;;;;;;;4.60;61.07;98943.56;5078055;28;42865;-79
2023/04/26 00:42:41;;;;;;;2.93;1.90;;;;;;;4.64;60.90;98969.63;5094918;28;42647;-79
2023/04/26 00:45:09;;;;;;;3.13;2.07;;;;;;;4.62;61.18;98968.81;5078414;28;39904;-78
2023/04/26 00:47:37;;;;;;;3.53;1.90;;;;;;;4.57;61.31;98976.00;5077918;28;41019;-79
2023/04/26 00:50:07;;;;;;;2.33;1.60;;;;;;;4.51;61.22;98970.97;5094618;28;41682;-78
2023/04/26 00:52:35;;;;;;;2.97;2.13;;;;;;;4.40;61.50;98946.91;5093805;28;41332;-80
2023/04/26 00:55:02;;;;;;;4.00;2.23;;;;;;;4.36;61.92;98945.31;5094011;28;40009;-81
2023/04/26 00:57:30;;;;;;;2.67;1.90;;;;;;;4.51;61.58;98976.22;5076717;28;40400;-80
2023/04/26 00:59:59;;;;;;;2.73;2.13;;;;;;;4.50;61.89;98968.41;5075587;28;42962;-81
2023/04/26 01:02:27;;;;;;;4.17;2.10;;;;;;;4.49;62.06;98971.94;5093535;28;42273;-78
2023/04/26 01:04:55;;;;;;;3.37;2.17;;;;;;;4.47;62.67;98966.75;5095151;28;41861;-78
2023/04/26 01:07:23;;;;;;;3.07;2.57;;;;;;;4.34;62.51;98953.22;5078213;28;40705;-80
2023/04/26 01:09:52;;;;;;;5.27;2.50;;;;;;;4.41;62.06;98966.97;5078018;28;41479;-80
2023/04/26 01:12:23;;;;;;;4.00;1.80;;;;;;;4.39;61.94;98975.81;5077382;28;41304;-79
2023/04/26 01:14:51;;;;;;;2.20;1.70;;;;;;;4.35;62.02;98969.81;5095119;28;40993;-80
2023/04/26 01:17:21;;;;;;;3.13;2.20;;;;;;;4.17;62.10;98952.13;5094678;28;40856;-80
2023/04/26 01:19:49;;;;;;;2.47;2.17;;;;;;;4.29;61.76;98972.66;5078230;28;42805;-82
2023/04/26 01:22:16;;;;;;;2.10;1.80;;;;;;;4.23;61.56;98975.47;5077817;28;41624;-79
2023/04/26 01:24:49;;;;;;;2.63;1.77;;;;;;;4.20;61.88;98970.38;5077893;28;39902;-79
2023/04/26 01:27:16;;;;;;;2.40;2.10;;;;;;;4.16;61.83;98976.63;5077440;28;41116;-80
2023/04/26 01:29:45;;;;;;;2.10;1.90;;;;;;;4.04;61.97;98958.69;5077719;28;43143;-81
2023/04/26 01:32:12;;;;;;;2.80;2.37;;;;;;;4.07;61.86;98972.56;5094421;28;42472;-76
2023/04/26 01:34:40;;;;;;;1.50;1.40;;;;;;;4.02;61.92;98971.00;5094692;28;41932;-79
2023/04/26 01:37:08;;;;;;;1.97;1.77;;;;;;;3.98;61.78;98970.22;5094354;28;41637;-80
2023/04/26 01:39:36;;;;;;;1.83;1.40;;;;;;;3.92;61.92;98971.31;5077215;28;42121;-78
2023/04/26 01:42:06;;;;;;;2.80;1.80;;;;;;;3.92;62.18;98978.31;5077266;28;40910;-82
2023/04/26 01:44:34;;;;;;;3.47;2.13;;;;;;;3.86;62.35;98970.66;5077228;28;40347;-82
2023/04/26 01:47:02;;;;;;;2.80;2.13;;;;;;;3.82;62.00;98975.16;5077198;28;41768;-75
2023/04/26 01:49:30;;;;;;;4.37;2.17;;;;;;;3.79;62.07;98975.25;5093990;28;42931;-80
2023/04/26 01:51:58;;;;;;;1.70;1.60;;;;;;;3.76;62.41;98964.88;5094109;28;43209;-80
2023/04/26 01:54:25;;;;;;;4.80;2.20;;;;;;;3.66;62.07;98960.84;5077106;28;39821;-81
2023/04/26 01:56:54;;;;;;;4.60;2.37;;;;;;;3.69;62.35;98973.84;5077096;28;41003;-79
2023/04/26 01:59:23;;;;;;;3.70;2.00;;;;;;;3.66;62.53;98973.94;5077137;28;42845;-81
2023/04/26 02:01:50;;;;;;;2.80;2.23;;;;;;;3.43;62.42;98940.66;5077035;28;42298;-79
2023/04/26 02:04:18;;;;;;;3.00;1.93;;;;;;;3.49;62.20;98955.28;5093942;28;41234;-77
2023/04/26 02:06:46;;;;;;;4.73;2.70;;;;;;;3.53;62.50;98976.09;5094373;28;41710;-78
2023/04/26 02:09:14;;;;;;;2.60;1.70;;;;;;;3.50;62.61;98972.72;5077088;28;43282;-78
2023/04/26 02:11:42;;;;;;;2.33;1.93;;;;;;;3.43;62.75;98971.22;5094566;28;43002;-77
2023/04/26 02:14:10;;;;;;;1.83;1.73;;;;;;;3.43;62.59;98966.84;5115284;28;41069;-80
2023/04/26 02:16:40;;;;;;;2.90;2.17;;;;;;;3.41;62.90;98970.41;5080569;28;40957;-76
2023/04/26 02:19:09;;;;;;;2.03;1.80;;;;;;;3.38;63.01;98967.88;5097425;28;43427;-80
2023/04/26 02:21:51;;;;;;;2.47;2.00;;;;;;;3.29;63.24;98957.69;5080808;28;42530;-78
2023/04/26 02:24:20;;;;;;;1.90;1.80;;;;;;;3.33;62.72;98977.66;5080154;28;42285;-78
2023/04/26 02:26:47;;;;;;;2.97;2.30;;;;;;;3.29;62.98;98976.03;5080559;28;40913;-79
2023/04/26 02:29:15;;;;;;;2.60;2.40;;;;;;;3.28;63.06;98976.91;5097209;28;42376;-79
2023/04/26 02:31:44;;;;;;;2.43;1.93;;;;;;;3.23;62.93;98974.44;5097349;28;43273;-78
2023/04/26 02:34:12;;;;;;;2.70;1.93;;;;;;;3.18;62.90;98977.22;5079977;28;41264;-81
2023/04/26 02:36:40;;;;;;;2.60;2.13;;;;;;;3.12;63.13;98969.53;5080203;28;40912;-76
2023/04/26 02:39:08;;;;;;;3.27;1.90;;;;;;;3.07;63.28;98973.22;5080040;28;41446;-79
2023/04/26 02:41:35;;;;;;;3.13;2.10;;;;;;;3.08;62.95;98986.25;5097234;28;43231;-79
2023/04/26 02:44:03;;;;;;;4.73;2.30;;;;;;;2.92;63.10;98964.06;5080111;28;39708;-77
2023/04/26 02:46:31;;;;;;;2.30;1.90;;;;;;;3.03;62.95;98982.06;5080259;28;40629;-75
2023/04/26 02:49:02;;;;;;;2.40;1.93;;;;;;;2.96;63.13;98981.41;5096538;28;43954;-77
2023/04/26 02:51:29;;;;;;;1.93;1.60;;;;;;;2.95;63.79;98979.69;5096828;28;43326;-78
2023/04/26 02:53:57;;;;;;;2.60;2.03;;;;;;;2.89;63.78;98972.00;5079639;28;40991;-78
2023/04/26 02:56:25;;;;;;;3.00;2.00;;;;;;;2.93;63.63;98978.88;5079931;28;40417;-78
2023/04/26 02:58:55;;;;;;;2.33;2.10;;;;;;;2.77;63.62;98959.28;5096502;28;43972;-77
2023/04/26 03:01:23;;;;;;;2.77;2.30;;;;;;;2.88;63.86;98980.75;5096804;28;42420;-80
2023/04/26 03:03:50;;;;;;;3.47;1.97;;;;;;;2.80;63.76;98975.75;5079313;28;40070;-77
2023/04/26 03:06:20;;;;;;;3.87;2.00;;;;;;;2.83;63.57;98982.66;5079724;28;40527;-78
2023/04/26 03:08:47;;;;;;;1.87;1.73;;;;;;;2.78;63.66;98984.53;5079532;28;42554;-75
2023/04/26 03:11:15;;;;;;;2.23;2.03;;;;;;;2.70;63.75;98978.69;5079482;28;41295;-80
2023/04/26 03:13:43;;;;;;;2.87;2.20;;;;;;;2.72;63.62;98984.72;5079734;28;40251;-77
2023/04/26 03:16:11;;;;;;;2.90;1.90;;;;;;;2.69;63.85;98985.66;5079387;28;42012;-81
2023/04/26 03:18:38;;;;;;;2.33;1.80;;;;;;;2.67;64.37;98984.00;5079117;28;43270;-76
2023/04/26 03:21:09;;;;;;;2.40;1.80;;;;;;;2.64;64.03;98984.06;5079557;28;42322;-79
2023/04/26 03:23:38;;;;;;;4.00;2.40;;;;;;;2.60;64.27;98985.09;5078313;28;40830;-79
2023/04/26 03:26:06;;;;;;;3.60;2.30;;;;;;;2.55;64.24;98984.34;5079489;28;40388;-78
2023/04/26 03:28:34;;;;;;;2.60;1.97;;;;;;;2.55;64.66;98984.34;5096121;28;43600;-80
2023/04/26 03:31:02;;;;;;;2.77;2.10;;;;;;;2.52;64.57;98991.38;5079515;28;41065;-82
2023/04/26 03:33:32;;;;;;;2.13;1.93;;;;;;;2.48;64.81;98981.88;5079019;28;39709;-79
2023/04/26 03:35:59;;;;;;;3.07;2.43;;;;;;;2.47;64.75;98982.78;5079317;28;40675;-82
2023/04/26 03:38:27;;;;;;;2.17;1.93;;;;;;;2.46;64.63;98975.00;5095867;28;42806;-82
2023/04/26 03:40:56;;;;;;;3.30;2.20;;;;;;;2.44;64.75;98985.50;5096357;28;42347;-77
2023/04/26 03:43:25;;;;;;;2.93;1.80;;;;;;;2.32;65.09;98962.31;5078707;28;39939;-79
2023/04/26 03:45:52;;;;;;;2.93;2.40;;;;;;;2.42;65.00;98984.69;5096213;28;41566;-79
2023/04/26 03:48:20;;;;;;;3.37;2.33;;;;;;;2.37;65.12;98970.00;5095483;28;43815;-77
2023/04/26 03:50:48;;;;;;;2.93;2.07;;;;;;;2.34;65.07;98976.22;5078959;28;42790;-79
2023/04/26 03:53:17;;;;;;;2.13;1.93;;;;;;;2.39;65.25;98984.75;5095889;28;41070;-78
2023/04/26 03:55:45;;;;;;;2.53;1.93;;;;;;;2.38;65.37;98988.28;5078812;28;41203;-81
2023/04/26 03:58:15;;;;;;;5.20;2.20;;;;;;;2.38;65.28;98992.63;5078358;28;42909;-78
2023/04/26 04:00:43;;;;;;;3.10;2.30;;;;;;;2.38;65.90;98983.03;5096061;28;42325;-76
2023/04/26 04:03:11;;;;;;;3.37;2.60;;;;;;;2.38;65.80;98985.66;5078285;28;40665;-80
2023/04/26 04:05:39;;;;;;;2.80;2.23;;;;;;;2.37;65.65;98986.56;5078851;28;40907;-79
2023/04/26 04:08:06;;;;;;;2.37;2.13;;;;;;;2.31;65.35;98978.91;5078624;28;41629;-78
2023/04/26 04:10:35;;;;;;;3.83;2.73;;;;;;;2.36;65.53;98984.84;5078583;28;41166;-76
2023/04/26 04:13:03;;;;;;;3.00;2.50;;;;;;;2.36;65.38;98991.81;5078058;28;41384;-81
2023/04/26 04:15:33;;;;;;;3.70;2.20;;;;;;;2.35;65.37;98993.56;5078672;28;41663;-78
2023/04/26 04:18:00;;;;;;;2.80;2.50;;;;;;;2.32;65.53;98992.81;5078029;28;42584;-80
2023/04/26 04:20:28;;;;;;;4.40;2.00;;;;;;;2.31;65.54;98999.81;5078601;28;42718;-81
2023/04/26 04:22:57;;;;;;;3.33;2.20;;;;;;;2.33;65.67;98998.00;5078471;28;40928;-78
2023/04/26 04:25:26;;;;;;;4.17;2.43;;;;;;;2.36;65.61;98991.81;5095629;28;41696;-78
2023/04/26 04:27:55;;;;;;;1.97;1.77;;;;;;;2.32;65.38;98988.44;5095129;28;42702;-81
2023/04/26 04:30:25;;;;;;;3.20;2.47;;;;;;;2.38;65.50;98995.25;5095284;28;42244;-79
2023/04/26 04:32:54;;;;;;;2.93;2.10;;;;;;;2.33;65.57;98990.16;5095125;28;40721;-77
2023/04/26 04:35:27;;;;;;;2.73;2.53;;;;;;;2.44;65.72;99009.03;5078269;28;40800;-76
2023/04/26 04:37:56;;;;;;;2.57;2.37;;;;;;;2.35;65.47;98988.34;5077796;28;41663;-82
2023/04/26 04:40:25;;;;;;;2.70;2.10;;;;;;;2.50;65.71;99013.22;5078151;28;41239;-79
2023/04/26 04:42:53;;;;;;;2.40;1.93;;;;;;;2.56;65.46;99006.97;5078093;28;40936;-77
2023/04/26 04:45:23;;;;;;;5.00;2.73;;;;;;;2.64;65.41;99011.06;5078307;28;41732;-78
2023/04/26 04:47:55;;;;;;;2.50;2.30;;;;;;;2.53;65.80;98977.41;5077803;28;41746;-77
2023/04/26 04:50:23;;;;;;;4.73;2.80;;;;;;;2.83;65.74;99012.28;5078009;28;41460;-77
2023/04/26 04:52:51;;;;;;;2.47;2.13;;;;;;;2.94;65.50;99018.97;5077621;28;39886;-77
2023/04/26 04:55:19;;;;;;;3.83;2.50;;;;;;;3.04;65.48;99016.03;5078108;28;40851;-81
2023/04/26 04:57:47;;;;;;;2.47;2.20;;;;;;;3.14;65.42;99020.06;5077849;28;42871;-79
2023/04/26 05:00:16;;;;;;;4.57;3.07;;;;;;;3.24;65.63;99013.66;5077846;28;41466;-81
2023/04/26 05:02:48;;;;;;;3.67;2.50;;;;;;;3.33;65.44;99017.78;5092554;28;41004;-79
2023/04/26 05:05:18;;;;;;;3.10;2.63;;;;;;;3.43;65.39;99018.34;5077817;28;41874;-77
2023/04/26 05:07:46;;;;;;;2.27;2.07;;;;;;;3.54;65.42;99016.22;5077694;28;41827;-80
2023/04/26 05:10:14;;;;;;;4.63;2.57;;;;;;;3.63;65.60;99015.94;5094915;28;42192;-81
2023/04/26 05:12:42;;;;;;;5.00;2.80;;;;;;;3.74;65.81;99021.69;5077563;28;39739;-80
2023/04/26 05:15:10;;;;;;;3.90;3.07;;;;;;;3.84;65.89;99019.59;5077751;28;41375;-80
2023/04/26 05:17:38;;;;;;;5.80;2.67;;;;;;;3.94;65.70;99021.91;5077943;28;41909;-80
2023/04/26 05:20:23;;;;;;;5.30;2.87;;;;;;;4.06;66.32;99027.63;5077947;28;41523;-79
2023/04/26 05:22:52;;;;;;;6.73;3.37;;;;;;;4.16;66.79;99026.41;5077701;28;39883;-80
2023/04/26 05:25:20;;;;;;;5.30;3.10;;;;;;;4.28;67.02;99026.00;5078100;28;41644;-77
2023/04/26 05:27:49;;;;;;;5.43;3.50;;;;;;;4.38;66.43;99032.63;5077062;28;41832;-81
2023/04/26 05:30:41;;;;;;;5.93;3.10;;;;;;;4.52;66.72;99035.63;5077426;28;42022;-80
2023/04/26 05:33:19;;;;;;;6.50;3.43;;;;;;;4.67;66.73;99045.59;5092819;28;41058;-79
2023/04/26 05:35:58;;;;;;;3.73;3.23;;;;;;;4.55;66.49;98997.97;5077380;28;40644;-79
2023/04/26 05:38:26;;;;;;;5.67;3.37;;;;;;;4.96;66.33;99054.16;5094560;28;42779;-81
2023/04/26 05:40:54;;;;;;;5.87;3.77;;;;;;;4.95;66.46;99040.16;5094314;28;41538;-80
2023/04/26 05:43:22;;;;;;;5.13;4.13;;;;;;;5.26;66.62;99055.66;5077361;28;41046;-82
2023/04/26 05:45:53;;;;;;;7.87;3.53;;;;;;;5.39;65.91;99035.88;5077796;27;41241;-82
2023/04/26 05:48:21;;;;;;;7.27;3.80;;;;;;;5.79;65.49;99060.59;5099064;28;42947;-80
2023/04/26 05:50:49;;;;;;;5.30;3.20;;;;;;;5.97;65.15;99067.75;5083809;28;41293;-79
2023/04/26 05:53:19;;;;;;;4.23;3.40;;;;;;;6.13;65.23;99063.59;5100556;28;39844;-78
2023/04/26 05:55:48;;;;;;;7.87;3.60;;;;;;;6.37;64.69;99064.34;5101210;28;42637;-78
2023/04/26 05:58:16;;;;;;;6.03;3.70;;;;;;;6.58;64.01;99065.19;5100853;28;43701;-79
2023/04/26 06:00:44;;;;;;;5.70;3.10;;;;;;;6.39;63.90;99019.56;5083823;28;41448;-80
2023/04/26 06:03:12;;;;;;;4.90;3.57;;;;;;;6.83;63.79;99071.09;5100901;28;40972;-78
2023/04/26 06:05:40;;;;;;;6.70;3.33;;;;;;;7.09;63.51;99069.94;5119274;28;41507;-79
2023/04/26 06:08:08;;;;;;;4.23;3.37;;;;;;;7.28;62.66;99074.41;5096144;28;42798;-84
2023/04/26 06:10:37;;;;;;;4.80;3.43;;;;;;;7.55;62.14;99088.91;5095488;28;43598;-76
2023/04/26 06:13:08;;;;;;;5.90;3.47;;;;;;;7.68;62.49;99082.16;5081837;28;40763;-79
2023/04/26 06:15:38;;;;;;;5.23;3.00;;;;;;;7.82;62.11;99084.13;5083002;28;40403;-78
2023/04/26 06:18:06;;;;;;;5.17;3.20;;;;;;;7.89;61.93;99088.19;5079854;28;42764;-76
2023/04/26 06:20:34;;;;;;;5.70;3.23;;;;;;;8.00;61.59;99075.34;5082820;28;41402;-76
2023/04/26 06:23:03;;;;;;;5.80;3.37;;;;;;;8.22;60.32;99085.69;5083036;28;39954;-76
2023/04/26 06:25:31;;;;;;;4.60;3.63;;;;;;;8.45;60.33;99077.53;5082956;28;40690;-76
2023/04/26 06:28:00;;;;;;;4.50;3.20;;;;;;;8.63;59.98;99094.22;5082930;28;42783;-77
2023/04/26 06:30:28;;;;;;;3.40;3.00;;;;;;;8.76;59.97;99097.94;5099430;28;42591;-79
2023/04/26 06:32:58;;;;;;;4.00;3.20;;;;;;;9.07;59.17;99106.91;5099618;28;41115;-77
2023/04/26 06:35:26;;;;;;;3.77;2.73;;;;;;;9.59;57.18;99107.63;5099929;28;41349;-77
2023/04/26 06:37:54;;;;;;;7.47;3.00;;;;;;;10.11;55.94;99118.84;5082575;28;43416;-77
2023/04/26 06:40:22;;;;;;;4.47;2.40;;;;;;;10.44;55.46;99122.22;5082125;28;42556;-77
2023/04/26 06:42:49;;;;;;;4.77;2.40;;;;;;;10.46;55.12;99123.94;5081979;28;40117;-74
2023/04/26 06:45:19;;;;;;;5.20;2.70;;;;;;;10.33;55.30;99129.94;5117477;28;41997;-75
2023/04/26 06:47:47;;;;;;;3.47;2.27;;;;;;;10.25;55.93;99126.88;5080143;28;42146;-76
2023/04/26 06:50:15;;;;;;;3.93;2.27;;;;;;;10.18;55.21;99122.84;5082438;28;41324;-76
2023/04/26 06:52:43;;;;;;;3.10;2.00;;;;;;;10.33;56.55;99114.06;5116208;28;41766;-77
2023/04/26 06:55:11;;;;;;;3.60;2.50;;;;;;;10.59;54.97;99114.34;5081243;28;40570;-78
2023/04/26 06:57:39;;;;;;;3.23;1.97;;;;;;;11.02;54.53;99129.38;5081615;28;42773;-77
2023/04/26 07:00:08;;;;;;;4.40;2.50;;;;;;;11.31;54.17;99130.28;5095893;28;41230;-78
2023/04/26 07:02:37;;;;;;;4.63;2.10;;;;;;;11.37;52.08;99144.97;5103863;28;40782;-77
2023/04/26 07:05:05;;;;;;;4.80;2.20;;;;;;;11.51;53.27;99129.91;5113072;28;40741;-78
2023/04/26 07:07:33;;;;;;;5.30;2.17;;;;;;;11.85;52.29;99136.66;5101056;28;43181;-78
2023/04/26 07:10:01;;;;;;;3.03;1.90;;;;;;;12.08;50.28;99155.56;5095608;28;41955;-78
2023/04/26 07:12:29;;;;;;;4.57;2.50;;;;;;;12.15;51.14;99138.28;5113645;28;40958;-77
2023/04/26 07:14:56;;;;;;;3.43;2.17;;;;;;;12.25;50.44;99144.72;5096176;28;41693;-78
2023/04/26 07:17:26;;;;;;;4.23;1.93;;;;;;;12.48;49.99;99141.44;5079382;28;20218;-78
2023/04/26 07:19:55;;;;;;;3.50;2.27;;;;;;;12.87;50.03;99145.03;5095433;28;41500;-78
2023/04/26 07:22:22;;;;;;;3.27;1.60;;;;;;;13.33;46.50;99171.19;5101546;28;40191;-77
2023/04/26 07:24:50;;;;;;;4.10;1.70;;;;;;;13.74;44.46;99182.47;5095350;28;42643;-79
2023/04/26 07:27:17;;;;;;;5.83;2.10;;;;;;;14.13;45.23;99175.28;5078121;28;42716;-76
2023/04/26 07:29:45;;;;;;;4.17;1.57;;;;;;;13.75;43.42;99191.31;5113748;28;42254;-82
2023/04/26 07:32:13;;;;;;;4.47;1.73;;;;;;;13.48;44.02;99170.13;5095313;28;39954;-77
2023/04/26 07:34:41;;;;;;;3.83;1.40;;;;;;;13.77;45.31;99174.28;5095728;28;41756;-77
2023/04/26 07:37:10;;;;;;;3.67;1.50;;;;;;;14.02;45.51;99163.59;5095080;28;43790;-78
2023/04/26 07:39:37;;;;;;;5.30;1.57;;;;;;;14.26;43.16;99179.59;5078620;28;42236;-77
2023/04/26 07:42:05;;;;;;;4.13;1.50;;;;;;;14.43;42.63;99170.44;5113246;28;41198;-76
2023/04/26 07:44:32;;;;;;;3.47;1.87;;;;;;;14.91;42.03;99186.41;5078202;28;42173;-76
2023/04/26 07:47:00;;;;;;;5.53;1.87;;;;;;;15.65;40.85;99194.03;5094777;28;43695;-76
2023/04/26 07:49:28;;;;;;;3.40;1.47;;;;;;;16.96;39.53;99199.47;5078284;28;41188;-76
2023/04/26 07:51:57;;;;;;;3.03;1.47;;;;;;;17.78;36.51;99203.22;5078122;28;41292;-77
2023/04/26 07:54:26;;;;;;;3.43;1.60;;;;;;;18.05;36.61;99216.00;5095433;28;42859;-77
2023/04/26 07:56:54;;;;;;;2.90;1.60;;;;;;;17.97;37.92;99185.50;5077974;28;41581;-77
2023/04/26 07:59:22;;;;;;;3.47;1.60;;;;;;;18.44;35.89;99222.38;5095375;28;43380;-78
2023/04/26 08:01:50;;;;;;;4.67;1.90;;;;;;;18.85;34.56;99212.47;5094581;28;39902;-78
2023/04/26 08:04:17;;;;;;;2.50;1.63;;;;;;;19.24;34.28;99233.00;5077805;28;40653;-76
2023/04/26 08:06:47;;;;;;;3.27;1.70;;;;;;;19.18;35.59;99206.69;5077591;28;42537;-78
2023/04/26 08:09:14;;;;;;;3.80;1.70;;;;;;;19.67;33.68;99204.81;5077377;28;41496;-80
2023/04/26 08:11:44;;;;;;;4.33;1.50;;;;;;;20.23;33.14;99228.16;5077801;28;40881;-78
2023/04/26 08:14:11;;;;;;;3.00;1.63;;;;;;;20.41;33.37;99229.94;5078228;28;40938;-85
2023/04/26 08:16:39;;;;;;;4.33;1.67;;;;;;;20.49;32.05;99237.28;5077920;28;41935;-79
2023/04/26 08:19:07;;;;;;;4.20;1.57;;;;;;;20.57;31.12;99217.69;5094437;28;41576;-77
2023/04/26 08:21:34;;;;;;;2.40;1.40;;;;;;;20.49;31.43;99244.50;5094064;28;40930;-76
2023/04/26 08:24:02;;;;;;;2.70;1.33;;;;;;;20.67;30.11;99251.59;5077707;28;41721;-76
2023/04/26 08:26:30;;;;;;;2.50;1.20;;;;;;;20.76;30.17;99247.19;5076945;28;41487;-74
2023/04/26 08:28:59;;;;;;;4.30;1.50;;;;;;;20.92;29.22;99244.66;5112852;28;42167;-76
2023/04/26 08:31:27;;;;;;;2.10;1.20;;;;;;;21.85;28.25;99237.94;5094242;28;39822;-78
2023/04/26 08:33:54;;;;;;;2.33;1.23;;;;;;;22.74;27.27;99270.84;5094127;28;40615;-77
2023/04/26 08:36:22;;;;;;;4.03;1.20;;;;;;;24.06;25.77;99270.88;5093765;28;43654;-75
2023/04/26 08:38:50;;;;;;;2.47;1.33;;;;;;;23.51;24.82;99268.84;5112498;28;42378;-74
2023/04/26 08:41:23;;;;;;;3.03;1.40;;;;;;;24.57;25.26;99259.59;5112126;28;41863;-76
2023/04/26 08:43:51;;;;;;;2.97;1.50;;;;;;;26.10;24.12;99270.44;5094684;28;41857;-79
2023/04/26 08:46:22;;;;;;;4.13;1.50;;;;;;;27.20;22.44;99283.28;5093812;28;43216;-77
2023/04/26 08:49:01;;;;;;;6.63;2.10;;;;;;;27.54;22.53;99276.13;5094368;28;42119;-77
2023/04/26 08:51:30;;;;;;;3.43;1.73;;;;;;;27.39;22.08;99274.50;5112057;28;40905;-76
2023/04/26 08:53:59;;;;;;;3.67;1.50;;;;;;;27.16;21.69;99280.09;5077103;28;40510;-77
2023/04/26 08:56:27;;;;;;;3.10;1.40;;;;;;;26.44;21.74;99271.81;5076631;28;41792;-78
2023/04/26 08:58:55;;;;;;;4.17;1.60;;;;;;;26.12;22.83;99262.94;5094428;28;42279;-78
2023/04/26 09:01:26;;;;;;;4.03;1.40;;;;;;;26.10;23.39;99254.13;5093778;28;41646;-76
2023/04/26 09:03:55;;;;;;;1.77;1.37;;;;;;;26.87;22.81;99258.38;5093709;28;40508;-76
2023/04/26 09:06:23;;;;;;;3.53;2.00;;;;;;;27.98;21.01;99272.34;5111592;28;42740;-76
2023/04/26 09:08:54;;;;;;;3.83;1.83;;;;;;;28.79;20.47;99259.94;5111927;28;42466;-77
2023/04/26 09:11:22;;;;;;;2.37;1.50;;;;;;;29.62;19.27;99271.53;5075966;28;39955;-78
2023/04/26 09:13:50;;;;;;;2.77;1.30;;;;;;;29.61;19.23;99267.94;5076851;28;41127;-78
2023/04/26 09:16:18;;;;;;;2.50;1.40;;;;;;;28.23;20.62;99253.69;5076205;28;41728;-78
2023/04/26 09:18:56;;;;;;;3.23;1.73;;;;;;;27.03;21.47;99234.56;5076692;28;41364;-77
2023/04/26 09:21:23;;;;;;;3.20;1.53;;;;;;;26.02;21.39;99248.81;5092507;28;41833;-76
2023/04/26 09:23:58;;;;;;;3.17;1.40;;;;;;;25.03;22.46;99243.47;5111969;28;41779;-78
2023/04/26 09:26:25;;;;;;;1.97;1.30;;;;;;;24.05;23.28;99224.00;5076060;28;42688;-77
2023/04/26 09:29:11;;;;;;;2.67;1.33;;;;;;;23.28;25.46;99223.53;5094035;28;43199;-77
2023/04/26 09:31:41;;;;;;;3.63;1.53;;;;;;;22.67;25.21;99202.28;5090433;28;40863;-78
2023/04/26 09:34:10;;;;;;;3.07;1.37;;;;;;;23.18;24.98;99217.44;5076071;28;40429;-77
2023/04/26 09:36:49;;;;;;;3.70;1.80;;;;;;;24.91;23.63;99229.44;5076351;28;43060;-75
2023/04/26 09:39:31;;;;;;;3.23;1.50;;;;;;;25.93;23.25;99220.06;5090900;28;42595;-78
2023/04/26 09:41:59;;;;;;;4.43;2.13;;;;;;;25.78;22.54;99205.63;5090542;28;42077;-79
2023/04/26 09:44:27;;;;;;;5.47;1.80;;;;;;;25.87;22.26;99226.22;5093424;28;40787;-76
2023/04/26 09:46:58;;;;;;;2.77;1.53;;;;;;;26.30;21.68;99232.75;5092997;28;42558;-75
2023/04/26 09:49:28;;;;;;;3.13;1.47;;;;;;;26.26;21.44;99236.00;5111587;28;43260;-79
2023/04/26 09:52:06;;;;;;;2.87;1.53;;;;;;;26.21;21.89;99233.03;5092965;28;41319;-79
2023/04/26 09:54:41;;;;;;;2.90;1.50;;;;;;;27.16;21.59;99233.88;5093448;28;41609;-77
2023/04/26 09:57:09;;;;;;;4.00;1.77;;;;;;;27.83;21.04;99214.41;5092843;28;42798;-78
2023/04/26 09:59:42;;;;;;;4.20;1.60;;;;;;;28.26;21.59;99214.31;5093534;28;42216;-79
2023/04/26 10:02:16;;;;;;;2.40;1.33;;;;;;;27.91;21.16;99221.59;5111289;28;40970;-75
2023/04/26 10:04:48;;;;;;;2.63;1.30;;;;;;;27.15;21.68;99226.75;5090723;28;41664;-77
2023/04/26 10:07:17;;;;;;;4.90;1.90;;;;;;;26.35;20.67;99235.75;5089218;28;42576;-75
2023/04/26 10:09:45;;;;;;;4.10;1.50;;;;;;;25.42;22.22;99227.09;5092505;28;42272;-77
2023/04/26 10:12:15;;;;;;;2.13;1.20;;;;;;;24.61;22.99;99223.00;5088055;28;41162;-77
2023/04/26 10:14:44;;;;;;;3.30;1.43;;;;;;;24.11;24.14;99219.78;5075486;28;41759;-78
2023/04/26 10:17:11;;;;;;;2.63;1.50;;;;;;;23.46;24.58;99163.06;5091905;28;43117;-76
2023/04/26 10:19:42;;;;;;;3.77;1.77;;;;;;;23.35;23.92;99214.75;5110696;28;43243;-74
2023/04/26 10:22:17;;;;;;;2.80;1.40;;;;;;;23.05;25.26;99205.44;5100919;28;39766;-83
2023/04/26 10:24:45;;;;;;;3.57;1.50;;;;;;;22.89;24.29;99217.03;5090134;28;41223;-79
2023/04/26 10:27:13;;;;;;;2.63;1.50;;;;;;;23.02;25.43;99174.19;5093119;28;42838;-78
2023/04/26 10:30:11;;;;;;;2.73;1.63;;;;;;;23.57;24.58;99196.03;5092032;28;41407;-80
2023/04/26 10:33:15;;;;;;;3.57;1.70;;;;;;;24.14;23.14;99209.44;5093019;28;40892;-80
2023/04/26 10:36:08;;;;;;;3.80;1.50;;;;;;;24.55;23.78;99188.50;5046954;28;40577;-80
2023/04/26 10:38:38;;;;;;;3.97;1.90;;;;;;;24.86;24.17;99187.63;5043769;28;41995;-77
2023/04/26 10:41:34;;;;;;;4.53;1.60;;;;;;;25.03;23.81;99189.28;5095910;28;43975;-78
2023/04/26 10:44:47;;;;;;;2.10;1.37;;;;;;;24.92;23.79;99186.94;5070718;28;41360;-80
2023/04/26 10:47:27;;;;;;;3.43;1.20;;;;;;;24.51;23.32;99192.56;4996282;28;40582;-81
2023/04/26 10:50:04;;;;;;;2.77;1.40;;;;;;;23.99;23.81;99171.41;5085180;28;42059;-79
2023/04/26 10:52:32;;;;;;;3.87;1.40;;;;;;;23.95;24.47;99183.63;5078833;28;41649;-77
2023/04/26 10:55:02;;;;;;;3.33;1.23;;;;;;;23.65;24.38;99132.97;5114338;28;40866;-79
2023/04/26 10:57:51;;;;;;;5.57;1.50;;;;;;;23.58;24.00;99186.06;5095667;28;40706;-78
2023/04/26 11:00:30;;;;;;;1.57;1.17;;;;;;;24.22;23.69;99185.09;5114719;28;44231;-79
2023/04/26 11:03:11;;;;;;;3.60;1.50;;;;;;;24.82;22.94;99159.25;5079154;28;41290;-81
2023/04/26 11:05:48;;;;;;;3.23;1.53;;;;;;;24.96;23.47;99169.34;5096891;28;39988;-83
2023/04/26 11:08:18;;;;;;;3.07;1.40;;;;;;;24.60;22.10;99161.72;5093040;28;41617;-82
2023/04/26 11:10:52;;;;;;;3.50;1.30;;;;;;;24.99;22.63;99155.41;5114883;28;44906;-81
2023/04/26 11:13:20;;;;;;;3.70;1.50;;;;;;;25.91;22.13;99159.69;5078977;28;41261;-80
2023/04/26 11:15:53;;;;;;;3.47;1.43;;;;;;;27.07;21.99;99154.31;5096260;28;41912;-80
2023/04/26 11:18:21;;;;;;;3.20;1.50;;;;;;;26.79;20.98;99173.22;5077306;28;40697;-80
2023/04/26 11:20:49;;;;;;;2.23;1.33;;;;;;;26.46;21.35;99156.50;5095486;28;42074;-78
2023/04/26 11:23:18;;;;;;;4.47;1.83;;;;;;;26.44;20.86;99166.75;5078592;28;41496;-79
2023/04/26 11:25:48;;;;;;;3.63;1.20;;;;;;;26.55;21.17;99170.84;5095916;28;39741;-82
2023/04/26 11:28:16;;;;;;;2.03;1.43;;;;;;;26.46;21.00;99171.94;5078393;28;40993;-83
2023/04/26 11:30:44;;;;;;;3.73;1.40;;;;;;;26.03;20.84;99171.78;5096023;28;41820;-81
2023/04/26 11:33:18;;;;;;;5.90;1.80;;;;;;;25.89;21.24;99164.47;5078391;28;40981;-86
2023/04/26 11:35:46;;;;;;;1.97;1.33;;;;;;;26.20;20.48;99171.59;5095686;28;40305;-83
2023/04/26 11:38:14;;;;;;;2.50;1.50;;;;;;;26.68;20.59;99164.72;5095151;28;41960;-78
2023/04/26 11:40:42;;;;;;;3.07;1.37;;;;;;;27.26;19.67;99168.28;5113805;28;42789;-77
2023/04/26 11:43:12;;;;;;;2.63;1.57;;;;;;;27.29;20.08;99157.84;5113135;28;42373;-80
2023/04/26 11:45:40;;;;;;;2.30;1.13;;;;;;;26.78;20.34;99165.25;5112638;28;40954;-78
2023/04/26 11:48:11;;;;;;;2.43;1.50;;;;;;;26.02;19.71;99171.97;5095107;28;41794;-78
2023/04/26 11:50:40;;;;;;;4.73;1.40;;;;;;;25.48;20.25;99155.84;5094053;28;43480;-77